createdAt,value
2019-01-02T00:06:29.992Z,101011.42
2019-01-02T00:15:31.271Z,101012.92
2019-01-02T00:18:33.007Z,101037.66
2019-01-02T00:24:44.652Z,101018.50
2019-01-02T00:28:18.790Z,101012.14
2019-01-02T00:33:59.741Z,101014.80
2019-01-02T00:37:14.462Z,101023.58
2019-01-02T00:43:03.746Z,101038.17
2019-01-02T00:45:53.861Z,101032.34
2019-01-02T00:48:42.783Z,101033.53
2019-01-02T00:51:18.153Z,101039.05
2019-01-02T00:54:02.346Z,101042.73
2019-01-02T01:03:16.438Z,101019.27
2019-01-02T01:06:09.974Z,101040.09
2019-01-02T01:09:48.191Z,101046.17
2019-01-02T01:12:40.823Z,101022.50
2019-01-02T01:15:46.018Z,101034.34
2019-01-02T01:18:48.984Z,101040.54
2019-01-02T01:22:09.084Z,101049.52
2019-01-02T01:27:43.334Z,101055.22
2019-01-02T01:30:27.564Z,101065.33
2019-01-02T01:33:35.692Z,101065.22
2019-01-02T01:36:47.976Z,101084.44
2019-01-02T01:39:42.204Z,101072.58
2019-01-02T01:52:29.510Z,101081.17
2019-01-02T01:55:34.635Z,101081.28
2019-01-02T02:08:06.004Z,101084.54
2019-01-02T02:11:31.880Z,101085.49
2019-01-02T02:23:52.524Z,101095.06
2019-01-02T02:26:42.626Z,101086.97
2019-01-02T02:29:27.261Z,101081.92
2019-01-02T02:35:11.696Z,101091.97
2019-01-02T02:41:02.343Z,101101.87
2019-01-02T02:43:37.812Z,101108.27
2019-01-02T02:46:43.997Z,101107.66
2019-01-02T02:53:38.332Z,101102.09
2019-01-02T02:59:41.095Z,101070.12
2019-01-02T03:02:42.530Z,101090.38
2019-01-02T03:05:52.729Z,101085.43
2019-01-02T03:09:05.119Z,101082.17
2019-01-02T03:12:40.784Z,101099.59
2019-01-02T03:21:10.610Z,101089.06
2019-01-02T03:24:17.469Z,101109.97
2019-01-02T03:30:35.337Z,101098.84
2019-01-02T03:33:40.596Z,101114.77
2019-01-02T03:36:20.015Z,101107.79
2019-01-02T03:38:56.705Z,101126.85
2019-01-02T03:42:32.390Z,101113.81
2019-01-02T03:45:28.856Z,101127.80
2019-01-02T03:51:35.245Z,101122.62
2019-01-02T03:58:04.108Z,101126.00
2019-01-02T04:00:47.921Z,101120.08
2019-01-02T04:03:40.664Z,101103.91
2019-01-02T04:15:52.357Z,101095.70
2019-01-02T04:18:51.367Z,101095.47
2019-01-02T04:24:29.610Z,101113.44
2019-01-02T04:30:40.959Z,101116.34
2019-01-02T04:36:18.772Z,101117.08
2019-01-02T04:42:24.657Z,101108.03
2019-01-02T04:45:27.370Z,101101.63
2019-01-02T04:48:39.572Z,101111.73
2019-01-02T04:52:00.051Z,101115.62
2019-01-02T05:01:05.291Z,101195.77
2019-01-02T05:04:09.938Z,101195.77
2019-01-02T05:13:22.208Z,101147.25
2019-01-02T05:19:31.612Z,101113.81
2019-01-02T05:22:40.058Z,101121.73
2019-01-02T05:25:56.571Z,101131.39
2019-01-02T05:29:10.257Z,101109.16
2019-01-02T05:41:40.231Z,101113.77
2019-01-02T05:44:51.611Z,101119.08
2019-01-02T05:50:48.702Z,101120.58
2019-01-02T05:57:46.291Z,101131.46
2019-01-02T06:00:21.655Z,101125.68
2019-01-02T06:03:23.336Z,101125.68
2019-01-02T06:06:37.097Z,101134.41
2019-01-02T06:09:19.865Z,101136.69
2019-01-02T06:18:36.012Z,101152.02
2019-01-02T06:21:57.040Z,101154.34
2019-01-02T06:24:40.532Z,101159.28
2019-01-02T06:27:44.807Z,101147.34
2019-01-02T06:45:49.570Z,101148.71
2019-01-02T06:48:38.659Z,101173.55
2019-01-02T06:51:09.825Z,101174.27
2019-01-02T06:53:40.967Z,101174.27
2019-01-02T06:56:32.023Z,101173.80
2019-01-02T06:59:11.382Z,101160.91
2019-01-02T07:04:34.116Z,101181.05
2019-01-02T07:07:18.444Z,101159.98
2019-01-02T07:09:57.845Z,101177.17
2019-01-02T07:15:31.650Z,101182.91
2019-01-02T07:18:02.738Z,101172.16
2019-01-02T07:20:34.747Z,101184.70
2019-01-02T07:23:05.940Z,101163.61
2019-01-02T07:25:38.064Z,101191.89
2019-01-02T07:28:28.455Z,101191.89
2019-01-02T07:31:18.494Z,101187.69
2019-01-02T07:34:28.415Z,101210.55
2019-01-02T07:37:10.560Z,101210.81
2019-01-02T07:40:19.541Z,101210.81
2019-01-02T07:43:30.697Z,101218.70
2019-01-02T07:46:39.686Z,101236.45
2019-01-02T07:49:50.902Z,101214.48
2019-01-02T07:53:11.766Z,101238.09
2019-01-02T07:56:17.281Z,101247.05
2019-01-02T07:59:27.236Z,101245.60
2019-01-02T08:02:49.199Z,101266.39
2019-01-02T08:05:33.815Z,101250.09
2019-01-02T08:08:42.876Z,101257.31
2019-01-02T08:11:52.118Z,101260.48
2019-01-02T08:15:03.226Z,101257.42
2019-01-02T08:18:00.415Z,101272.92
2019-01-02T08:21:09.495Z,101267.23
2019-01-02T08:24:04.130Z,101272.92
2019-01-02T08:27:19.680Z,101267.23
2019-01-02T08:34:02.239Z,101278.11
2019-01-02T08:37:11.422Z,101262.77
2019-01-02T08:40:21.267Z,101283.57
2019-01-02T08:43:30.412Z,101288.75
2019-01-02T08:46:39.474Z,101289.23
2019-01-02T08:49:48.624Z,101289.70
2019-01-02T08:52:58.670Z,101277.91
2019-01-02T08:55:53.081Z,101288.08
2019-01-02T08:59:02.167Z,101287.88
2019-01-02T09:02:12.504Z,101285.56
2019-01-02T09:05:22.512Z,101285.56
2019-01-02T09:08:44.342Z,101271.79
2019-01-02T09:11:58.403Z,101277.05
2019-01-02T09:14:54.872Z,101289.05
2019-01-02T09:21:12.335Z,101287.59
2019-01-02T09:24:21.694Z,101292.30
2019-01-02T09:27:30.729Z,101285.20
2019-01-02T09:30:39.747Z,101279.98
2019-01-02T09:33:53.227Z,101288.38
2019-01-02T09:37:02.284Z,101295.52
2019-01-02T09:40:12.275Z,101287.45
2019-01-02T09:43:24.702Z,101293.49
2019-01-02T09:46:37.852Z,101302.66
2019-01-02T09:49:49.069Z,101312.64
2019-01-02T09:52:47.702Z,101299.00
2019-01-02T09:55:57.998Z,101306.34
2019-01-02T10:02:40.230Z,101314.27
2019-01-02T10:16:36.820Z,101322.64
2019-01-02T10:26:21.277Z,101347.58
2019-01-02T10:33:01.108Z,101340.17
2019-01-02T10:43:23.736Z,101361.19
2019-01-02T10:50:26.762Z,101373.48
2019-01-02T11:00:14.743Z,101370.30
2019-01-02T11:06:54.828Z,101354.63
2019-01-02T11:09:51.671Z,101357.12
2019-01-02T11:13:07.783Z,101357.12
2019-01-02T11:33:29.055Z,101363.49
2019-01-02T11:36:58.207Z,101363.55
2019-01-02T11:40:34.949Z,101346.98
2019-01-02T11:47:18.867Z,101353.39
2019-01-02T12:05:05.651Z,101369.64
2019-01-02T12:10:36.064Z,101363.25
2019-01-02T12:17:25.762Z,101360.40
2019-01-02T12:19:56.783Z,101369.41
2019-01-02T12:22:41.649Z,101366.03
2019-01-02T12:25:56.677Z,101365.50
2019-01-02T12:32:22.273Z,101361.33
2019-01-02T12:38:34.927Z,101375.34
2019-01-02T12:41:48.439Z,101351.63
2019-01-02T12:48:02.779Z,101368.08
2019-01-02T12:57:26.877Z,101381.06
2019-01-02T13:00:35.880Z,101383.41
2019-01-02T13:03:51.366Z,101382.09
2019-01-02T13:17:46.197Z,101426.28
2019-01-02T13:41:10.621Z,101424.23
2019-01-02T13:51:32.418Z,101432.83
2019-01-02T13:58:00.277Z,101429.58
2019-01-02T14:04:49.735Z,101432.50
2019-01-02T14:11:11.495Z,101420.80
2019-01-02T14:13:40.513Z,101434.17
2019-01-02T14:16:46.108Z,101430.93
2019-01-02T14:19:50.461Z,101434.64
2019-01-02T14:23:31.485Z,101442.06
2019-01-02T14:26:17.528Z,101438.91
2019-01-02T14:32:46.904Z,101447.28
2019-01-02T14:36:23.491Z,101451.38
2019-01-02T14:39:16.300Z,101465.23
2019-01-02T14:42:27.151Z,101470.27
2019-01-02T14:45:02.051Z,101474.91
2019-01-02T14:51:13.921Z,101474.76
2019-01-02T15:07:33.891Z,101487.72
2019-01-02T15:17:42.036Z,101506.23
2019-01-02T15:20:36.680Z,101516.53
2019-01-02T15:23:23.181Z,101508.16
2019-01-02T15:32:57.618Z,101519.86
2019-01-02T15:36:15.808Z,101519.86
2019-01-02T15:39:27.618Z,101531.11
2019-01-02T15:42:16.403Z,101544.80
2019-01-02T15:51:33.824Z,101539.78
2019-01-02T15:54:08.343Z,101549.74
2019-01-02T15:57:00.101Z,101549.74
2019-01-02T15:59:31.316Z,101557.08
2019-01-02T16:09:01.809Z,101562.73
2019-01-02T16:11:52.771Z,101576.22
2019-01-02T16:17:28.231Z,101577.89
2019-01-02T16:20:19.816Z,101589.31
2019-01-02T16:23:22.734Z,101583.55
2019-01-02T16:29:35.941Z,101596.63
2019-01-02T16:32:39.032Z,101599.52
2019-01-02T16:35:13.381Z,101609.42
2019-01-02T16:38:03.529Z,101616.45
2019-01-02T16:40:34.853Z,101616.36
2019-01-02T16:43:06.105Z,101621.44
2019-01-02T16:46:09.542Z,101622.27
2019-01-02T16:51:35.232Z,101624.25
2019-01-02T16:54:19.569Z,101630.64
2019-01-02T16:59:32.038Z,101627.66
2019-01-02T17:05:09.728Z,101635.25
2019-01-02T17:08:20.879Z,101639.37
2019-01-02T17:14:20.202Z,101647.87
2019-01-02T17:17:11.156Z,101639.55
2019-01-02T17:19:45.390Z,101646.75
2019-01-02T17:22:36.513Z,101650.61
2019-01-02T17:25:09.715Z,101651.16
2019-01-02T17:27:53.603Z,101649.19
2019-01-02T17:30:25.753Z,101652.33
2019-01-02T17:32:57.791Z,101656.99
2019-01-02T17:40:10.598Z,101656.30
2019-01-02T17:42:33.819Z,101617.73
2019-01-02T17:51:27.669Z,101663.84
2019-01-02T17:54:04.442Z,101655.30
2019-01-02T17:56:36.404Z,101664.61
2019-01-02T17:59:15.094Z,101672.69
2019-01-02T18:01:47.467Z,101673.69
2019-01-02T18:05:26.393Z,101686.72
2019-01-02T18:11:22.360Z,101688.05
2019-01-02T18:14:38.681Z,101684.02
2019-01-02T18:17:21.387Z,101686.46
2019-01-02T18:20:12.407Z,101679.97
2019-01-02T18:26:30.491Z,101690.86
2019-01-02T18:29:21.592Z,101692.25
2019-01-02T18:32:18.670Z,101694.63
2019-01-02T18:34:49.849Z,101702.15
2019-01-02T18:40:51.009Z,101714.16
2019-01-02T18:46:52.116Z,101733.02
2019-01-02T18:49:24.281Z,101730.73
2019-01-02T18:52:14.447Z,101729.02
2019-01-02T18:55:05.526Z,101734.66
2019-01-02T18:57:56.615Z,101738.82
2019-01-02T19:00:28.752Z,101748.25
2019-01-02T19:03:19.794Z,101738.31
2019-01-02T19:05:52.494Z,101741.55
2019-01-02T19:11:26.073Z,101741.56
2019-01-02T19:14:16.264Z,101749.13
2019-01-02T19:17:06.486Z,101754.12
2019-01-02T19:20:23.061Z,101752.92
2019-01-02T19:22:55.438Z,101758.30
2019-01-02T19:28:36.396Z,101759.86
2019-01-02T19:31:26.697Z,101759.86
2019-01-02T19:40:55.360Z,101760.69
2019-01-02T19:44:17.001Z,101768.53
2019-01-02T19:46:19.916Z,101776.57
2019-01-02T19:48:52.088Z,101773.52
2019-01-02T19:51:26.817Z,101773.99
2019-01-02T19:54:38.149Z,101779.03
2019-01-02T19:57:12.160Z,101778.64
2019-01-02T20:00:02.399Z,101776.76
2019-01-02T20:02:35.789Z,101782.45
2019-01-02T20:05:26.098Z,101787.37
2019-01-02T20:07:58.598Z,101784.91
2019-01-02T20:11:09.960Z,101782.06
2019-01-02T20:13:42.996Z,101781.41
2019-01-02T20:16:34.813Z,101781.12
2019-01-02T20:22:08.446Z,101780.00
2019-01-02T20:24:39.722Z,101779.61
2019-01-02T20:30:36.674Z,101775.63
2019-01-02T20:33:38.471Z,101774.96
2019-01-02T20:36:21.892Z,101772.52
2019-01-02T20:39:23.587Z,101775.27
2019-01-02T20:41:54.841Z,101775.18
2019-01-02T20:44:27.703Z,101768.83
2019-01-02T20:50:06.688Z,101776.59
2019-01-02T20:55:42.023Z,101772.70
2019-01-02T20:58:16.361Z,101763.45
2019-01-02T21:01:47.772Z,101772.34
2019-01-02T21:04:33.157Z,101762.59
2019-01-02T21:07:23.548Z,101763.54
2019-01-02T21:13:16.751Z,101767.12
2019-01-02T21:22:20.211Z,101771.86
2019-01-02T21:27:44.197Z,101780.95
2019-01-02T21:30:37.263Z,101776.94
2019-01-02T21:33:12.874Z,101776.94
2019-01-02T21:35:44.993Z,101771.10
2019-01-02T21:38:54.095Z,101771.10
2019-01-02T21:41:26.205Z,101777.53
2019-01-02T21:43:58.373Z,101768.09
2019-01-02T21:46:49.411Z,101772.99
2019-01-02T21:50:02.417Z,101758.30
2019-01-02T21:52:55.347Z,101766.16
2019-01-02T21:59:10.390Z,101763.81
2019-01-02T22:01:40.452Z,101762.46
2019-01-02T22:04:30.627Z,101760.49
2019-01-02T22:09:56.879Z,101766.88
2019-01-02T22:12:28.190Z,101766.88
2019-01-02T22:15:00.623Z,101757.86
2019-01-02T22:17:52.086Z,101758.69
2019-01-02T22:20:23.470Z,101767.98
2019-01-02T22:23:09.883Z,101769.94
2019-01-02T22:25:50.721Z,101769.34
2019-01-02T22:31:54.978Z,101771.09
2019-01-02T22:34:27.247Z,101771.16
2019-01-02T22:36:59.332Z,101778.87
2019-01-02T22:39:50.377Z,101783.37
2019-01-02T22:42:25.363Z,101783.82
2019-01-02T22:48:19.307Z,101788.48
2019-01-02T22:51:10.415Z,101796.81
2019-01-02T22:54:09.952Z,101795.05
2019-01-02T22:56:59.468Z,101804.92
2019-01-02T22:59:49.823Z,101811.09
2019-01-02T23:03:01.143Z,101811.09
2019-01-02T23:06:16.474Z,101800.33
2019-01-02T23:09:18.193Z,101810.63
2019-01-02T23:15:39.843Z,101809.65
2019-01-02T23:19:41.432Z,101809.65
2019-01-02T23:22:24.106Z,101813.06
2019-01-02T23:25:33.782Z,101819.10
2019-01-02T23:28:50.101Z,101819.50
2019-01-02T23:38:39.332Z,101834.53
2019-01-02T23:45:02.379Z,101842.06
2019-01-02T23:48:13.262Z,101848.81
2019-01-02T23:51:27.731Z,101846.16
2019-01-02T23:58:20.678Z,101845.17
